Time;durP1;ratioP1;P1;durP2;ratioP2;P2;SDS_P1;SDS_P2;PMS_P1;PMS_P2;Temp;Humidity;BMP_temperature;BMP_pressure;BME280_temperature;BME280_humidity;BME280_pressure;Samples;Min_cycle;Max_cycle;Signal;HPM_P1;HPM_P2
2023/06/21 00:02:23;;;;;;;;;7.25;7.25;;;;;22.52;73.40;100452.88;5037555;28;45366;-79
2023/06/21 00:04:49;;;;;;;;;8.25;8.25;;;;;22.51;72.67;100465.44;5037267;28;46485;-76
2023/06/21 00:07:14;;;;;;;;;6.75;6.75;;;;;22.46;72.67;100476.59;5037518;28;45213;-75
2023/06/21 00:09:39;;;;;;;;;8.75;8.75;;;;;22.42;73.24;100464.44;5052787;28;45593;-76
2023/06/21 00:12:05;;;;;;;;;6.00;6.00;;;;;22.42;73.12;100460.91;5037259;28;52530;-72
2023/06/21 00:14:30;;;;;;;;;9.50;9.50;;;;;22.37;72.98;100455.97;5037283;28;47509;-73
2023/06/21 00:16:56;;;;;;;;;9.00;9.00;;;;;22.35;72.88;100454.44;5037269;28;45307;-77
2023/06/21 00:19:21;;;;;;;;;8.25;7.00;;;;;22.34;72.60;100461.63;5052856;28;45362;-76
2023/06/21 00:21:46;;;;;;;;;7.75;7.75;;;;;22.33;72.79;100468.81;5037443;28;45386;-76
2023/06/21 00:24:13;;;;;;;;;8.00;8.00;;;;;22.30;72.81;100466.41;5037449;28;47222;-76
2023/06/21 00:26:38;;;;;;;;;6.50;6.50;;;;;22.20;72.85;100452.16;5040578;28;45230;-78
2023/06/21 00:29:03;;;;;;;;;7.75;7.75;;;;;22.26;73.08;100448.91;5041073;28;45260;-78
2023/06/21 00:31:30;;;;;;;;;6.75;6.75;;;;;22.27;73.26;100460.50;5041775;28;45335;-77
2023/06/21 00:33:56;;;;;;;;;7.75;7.75;;;;;22.22;73.58;100455.53;5037055;28;46607;-78
2023/06/21 00:36:21;;;;;;;;;8.25;8.25;;;;;22.18;73.78;100457.66;5036801;28;45366;-78
2023/06/21 00:38:46;;;;;;;;;6.00;6.00;;;;;22.20;73.62;100467.41;5037093;28;45263;-78
2023/06/21 00:41:12;;;;;;;;;7.00;7.00;;;;;22.16;73.87;100464.13;5037284;28;45486;-76
2023/06/21 00:43:37;;;;;;;;;6.00;6.00;;;;;22.10;73.94;100459.34;5036860;28;46418;-75
2023/06/21 00:46:04;;;;;;;;;7.25;6.25;;;;;22.03;74.30;100449.19;5036455;28;45357;-72
2023/06/21 00:48:29;;;;;;;;;8.00;8.00;;;;;22.08;74.51;100458.63;5036793;28;45469;-73
2023/06/21 00:50:56;;;;;;;;;6.25;6.25;;;;;22.04;74.76;100466.94;5036724;28;45240;-71
2023/06/21 00:53:23;;;;;;;;;6.00;6.00;;;;;22.03;74.94;100464.44;5035819;28;45680;-75
2023/06/21 00:55:49;;;;;;;;;5.00;5.00;;;;;22.03;75.21;100469.78;5036615;28;45310;-74
2023/06/21 00:58:15;;;;;;;;;8.25;8.25;;;;;21.98;75.29;100469.34;5036696;28;45415;-71
2023/06/21 01:00:41;;;;;;;;;7.00;7.00;;;;;21.91;75.16;100469.06;5052356;28;45533;-75
2023/06/21 01:03:07;;;;;;;;;7.00;7.00;;;;;21.82;75.11;100472.56;5052119;28;47008;-75
2023/06/21 01:05:34;;;;;;;;;7.25;7.25;;;;;21.73;76.03;100475.06;5051691;28;45966;-75
2023/06/21 01:08:11;;;;;;;;;6.25;6.25;;;;;21.73;75.97;100487.59;5036242;28;45256;-76
2023/06/21 01:10:55;;;;;;;;;6.75;6.75;;;;;21.70;76.12;100482.53;5036767;28;45492;-70
2023/06/21 01:13:41;;;;;;;;;5.00;5.00;;;;;21.68;76.58;100487.16;5036097;28;45443;-70
2023/06/21 01:16:12;;;;;;;;;6.00;6.00;;;;;21.65;76.81;100496.34;5036503;28;45355;-69
2023/06/21 01:18:40;;;;;;;;;7.00;7.00;;;;;21.56;77.00;100487.25;5036539;28;45446;-72
2023/06/21 01:21:07;;;;;;;;;7.25;7.25;;;;;21.62;77.32;100501.06;5036486;28;45331;-73
2023/06/21 01:24:14;;;;;;;;;5.75;5.75;;;;;21.60;77.67;100504.72;5035885;28;46505;-74
2023/06/21 01:27:00;;;;;;;;;8.25;8.25;;;;;21.64;78.03;100504.47;5035919;28;45406;-75
2023/06/21 01:29:33;;;;;;;;;6.00;6.00;;;;;21.64;77.79;100516.06;5036040;28;45442;-74
2023/06/21 01:32:01;;;;;;;;;7.50;7.50;;;;;21.63;77.86;100509.00;5036075;28;45232;-75
2023/06/21 01:34:27;;;;;;;;;4.50;4.50;;;;;21.64;77.88;100507.16;5035509;28;45432;-76
2023/06/21 01:36:53;;;;;;;;;7.00;7.00;;;;;21.63;77.92;100513.47;5035562;28;45604;-77
2023/06/21 01:39:19;;;;;;;;;8.00;8.00;;;;;21.62;77.62;100514.44;5035960;28;45346;-74
2023/06/21 01:41:45;;;;;;;;;6.75;6.75;;;;;21.58;78.28;100512.03;5035867;28;45406;-76
2023/06/21 01:44:10;;;;;;;;;5.25;5.25;;;;;21.56;78.30;100523.88;5035939;28;45296;-72
2023/06/21 01:46:36;;;;;;;;;6.25;6.25;;;;;21.41;78.30;100502.84;5035714;28;45353;-72
2023/06/21 01:49:06;;;;;;;;;5.00;5.00;;;;;21.51;78.35;100520.75;5035828;28;45357;-72
2023/06/21 01:51:34;;;;;;;;;6.00;6.00;;;;;21.48;78.60;100523.72;5035824;28;45636;-71
2023/06/21 01:53:59;;;;;;;;;8.00;8.00;;;;;21.45;78.74;100530.16;5035605;28;45671;-73
2023/06/21 01:56:25;;;;;;;;;5.25;5.25;;;;;21.43;79.13;100529.44;5035573;28;45240;-74
2023/06/21 01:58:51;;;;;;;;;5.25;5.25;;;;;21.41;79.07;100528.72;5035739;28;45242;-79
2023/06/21 02:01:18;;;;;;;;;6.50;6.50;;;;;21.41;79.61;100542.09;5035803;28;45418;-77
2023/06/21 02:03:51;;;;;;;;;6.00;6.00;;;;;21.42;79.63;100543.81;5035305;28;46461;-75
2023/06/21 02:06:20;;;;;;;;;9.00;9.00;;;;;21.36;79.45;100542.53;5035850;28;45426;-75
2023/06/21 02:08:47;;;;;;;;;6.50;6.50;;;;;21.32;80.05;100538.41;5035836;28;45326;-76
2023/06/21 02:11:13;;;;;;;;;6.75;6.75;;;;;21.33;80.19;100555.31;5041309;28;45530;-76
2023/06/21 02:13:38;;;;;;;;;7.50;7.50;;;;;21.31;80.20;100552.78;5042458;28;46152;-77
2023/06/21 02:16:04;;;;;;;;;5.50;5.50;;;;;21.35;80.33;100550.66;5039428;28;45352;-73
2023/06/21 02:18:29;;;;;;;;;5.75;5.75;;;;;21.34;80.33;100555.19;5036407;28;45505;-71
2023/06/21 02:20:55;;;;;;;;;5.50;5.50;;;;;21.32;80.27;100559.81;5035352;28;45547;-73
2023/06/21 02:23:20;;;;;;;;;7.00;7.00;;;;;21.28;80.41;100547.69;5034745;28;46263;-73
2023/06/21 02:25:46;;;;;;;;;6.50;6.50;;;;;21.26;80.95;100549.66;5034897;28;55870;-73
2023/06/21 02:28:11;;;;;;;;;9.50;9.50;;;;;21.24;81.25;100540.91;5035513;28;45326;-75
2023/06/21 02:30:36;;;;;;;;;5.00;5.00;;;;;21.24;81.40;100540.91;5035438;28;45599;-73
2023/06/21 02:33:02;;;;;;;;;6.25;6.25;;;;;21.23;81.26;100534.69;5034921;28;46484;-73
2023/06/21 02:35:27;;;;;;;;;6.25;6.25;;;;;21.19;81.50;100535.94;5034937;28;45442;-76
2023/06/21 02:37:52;;;;;;;;;6.50;6.50;;;;;21.24;81.70;100544.41;5050458;28;45370;-76
2023/06/21 02:40:18;;;;;;;;;7.00;6.00;;;;;21.22;81.47;100545.53;5035200;28;45240;-75
2023/06/21 02:42:43;;;;;;;;;5.00;5.00;;;;;21.17;81.90;100544.09;5035068;28;49821;-75
2023/06/21 02:45:09;;;;;;;;;6.00;6.00;;;;;21.13;82.20;100542.66;5035005;28;45379;-78
2023/06/21 02:47:35;;;;;;;;;5.00;5.00;;;;;21.12;82.45;100548.97;5050427;28;45356;-72
2023/06/21 02:50:00;;;;;;;;;7.00;7.00;;;;;21.08;82.32;100542.19;5035026;28;45727;-71
2023/06/21 02:52:25;;;;;;;;;5.00;5.00;;;;;21.08;82.80;100550.22;5050306;28;45350;-75
2023/06/21 02:54:54;;;;;;;;;6.25;6.25;;;;;21.02;83.08;100543.59;5034999;28;45418;-77
2023/06/21 02:57:19;;;;;;;;;6.00;6.00;;;;;21.02;83.15;100562.31;5034880;28;45362;-74
2023/06/21 02:59:45;;;;;;;;;6.00;6.00;;;;;21.00;83.32;100552.72;5035217;28;45277;-75
2023/06/21 03:02:11;;;;;;;;;6.50;6.50;;;;;20.99;83.58;100549.19;5034519;28;45288;-76
2023/06/21 03:04:37;;;;;;;;;7.50;7.50;;;;;20.99;83.52;100548.34;5034415;28;45420;-74
2023/06/21 03:07:04;;;;;;;;;7.00;7.00;;;;;21.01;83.43;100557.06;5035015;28;45334;-75
2023/06/21 03:09:30;;;;;;;;;5.00;5.00;;;;;20.98;83.74;100552.00;5034815;28;45486;-76
2023/06/21 03:11:56;;;;;;;;;5.00;5.00;;;;;20.93;84.17;100559.56;5049532;28;46878;-75
2023/06/21 03:14:21;;;;;;;;;7.00;7.00;;;;;20.87;84.54;100559.09;5034167;28;54728;-78
2023/06/21 03:16:46;;;;;;;;;5.25;5.25;;;;;20.87;84.64;100564.44;5037787;28;45300;-77
2023/06/21 03:19:12;;;;;;;;;5.25;5.25;;;;;20.81;84.82;100554.28;5038250;28;45434;-78
2023/06/21 03:21:37;;;;;;;;;7.00;7.00;;;;;20.79;85.12;100558.06;5037981;28;46914;-71
2023/06/21 03:24:03;;;;;;;;;6.50;6.50;;;;;20.78;85.61;100561.69;5038019;28;45488;-70
2023/06/21 03:26:29;;;;;;;;;6.75;6.75;;;;;20.80;86.01;100563.25;5038113;28;45313;-72
2023/06/21 03:28:55;;;;;;;;;4.25;4.25;;;;;20.81;86.06;100564.97;5053706;28;45221;-70
2023/06/21 03:31:20;;;;;;;;;5.75;5.75;;;;;20.78;86.31;100562.53;5037655;28;46252;-72
2023/06/21 03:33:46;;;;;;;;;7.00;7.00;;;;;20.80;86.15;100565.94;5038218;28;45238;-74
2023/06/21 03:36:12;;;;;;;;;6.25;6.25;;;;;20.82;86.15;100563.97;5038268;28;45237;-71
2023/06/21 03:38:38;;;;;;;;;5.50;5.50;;;;;20.78;86.53;100554.53;5053484;28;45530;-71
2023/06/21 03:41:03;;;;;;;;;5.00;5.00;;;;;20.80;86.33;100565.94;5037598;28;46275;-73
2023/06/21 03:43:28;;;;;;;;;6.00;6.00;;;;;20.78;86.21;100564.34;5037714;28;45271;-78
2023/06/21 03:45:55;;;;;;;;;5.50;5.50;;;;;20.80;86.41;100581.97;5038119;28;45438;-77
2023/06/21 03:48:20;;;;;;;;;6.00;6.00;;;;;20.82;86.35;100585.38;5037901;28;45645;-75
2023/06/21 03:50:45;;;;;;;;;5.75;5.75;;;;;20.83;86.72;100595.09;5038195;28;46004;-77
2023/06/21 03:53:11;;;;;;;;;7.00;7.00;;;;;20.80;86.78;100591.84;5038030;28;45324;-72
2023/06/21 03:55:37;;;;;;;;;5.75;5.75;;;;;20.79;86.79;100607.00;5037912;28;45315;-72
2023/06/21 03:58:02;;;;;;;;;5.50;5.50;;;;;20.77;87.14;100611.59;5038885;28;45523;-74
2023/06/21 04:00:28;;;;;;;;;5.50;5.50;;;;;20.78;87.02;100610.66;5038607;28;45371;-71
2023/06/21 04:02:53;;;;;;;;;6.75;6.75;;;;;20.74;87.14;100614.53;5053429;28;45323;-71
2023/06/21 04:05:19;;;;;;;;;5.75;5.75;;;;;20.71;87.37;100614.78;5037899;28;45362;-75
2023/06/21 04:07:46;;;;;;;;;7.50;7.00;;;;;20.75;87.47;100624.25;5037735;28;45367;-79
2023/06/21 04:10:13;;;;;;;;;5.00;5.00;;;;;20.73;87.74;100620.84;5037127;28;46592;-77
2023/06/21 04:12:38;;;;;;;;;7.00;7.00;;;;;20.74;87.80;100617.19;5037213;28;45374;-77
2023/06/21 04:15:05;;;;;;;;;7.75;7.75;;;;;20.77;87.92;100632.16;5037308;28;45276;-76
2023/06/21 04:17:31;;;;;;;;;6.75;6.75;;;;;20.75;87.88;100632.25;5037277;28;45305;-76
2023/06/21 04:19:56;;;;;;;;;8.50;8.50;;;;;20.78;87.99;100641.88;5037010;28;46096;-76
2023/06/21 04:22:23;;;;;;;;;8.50;8.50;;;;;20.76;88.21;100633.13;5036827;28;59807;-77
2023/06/21 04:24:49;;;;;;;;;6.75;6.75;;;;;20.77;88.58;100649.03;5037607;28;45536;-77
2023/06/21 04:27:15;;;;;;;;;8.75;8.75;;;;;20.73;89.11;100653.78;5036499;28;45583;-71
2023/06/21 04:29:40;;;;;;;;;7.25;7.25;;;;;20.70;89.65;100650.50;5052247;28;45806;-75
2023/06/21 04:32:07;;;;;;;;;8.75;8.75;;;;;20.65;90.07;100653.53;5036787;28;45252;-77
2023/06/21 04:34:33;;;;;;;;;10.25;10.25;;;;;20.66;90.30;100665.09;5037366;28;45477;-75
2023/06/21 04:36:59;;;;;;;;;7.75;7.75;;;;;20.63;90.90;100660.00;5037177;28;45153;-74
2023/06/21 04:39:24;;;;;;;;;7.25;7.25;;;;;20.61;90.81;100664.63;5036950;28;45293;-74
2023/06/21 04:41:52;;;;;;;;;8.00;8.00;;;;;20.62;91.47;100669.00;5036802;28;45347;-77
2023/06/21 04:44:17;;;;;;;;;7.25;7.25;;;;;20.61;91.57;100678.00;5036777;28;45363;-76
2023/06/21 04:46:44;;;;;;;;;7.00;7.00;;;;;20.57;92.08;100688.06;5036857;28;45359;-77
2023/06/21 04:49:09;;;;;;;;;7.00;7.00;;;;;20.61;92.37;100694.03;5036805;28;46212;-76
2023/06/21 04:51:35;;;;;;;;;7.75;7.75;;;;;20.60;92.11;100695.81;5036586;28;45406;-77
2023/06/21 04:54:00;;;;;;;;;8.25;8.25;;;;;20.68;92.14;100703.25;5052253;28;45350;-78
2023/06/21 04:56:29;;;;;;;;;8.75;8.75;;;;;20.70;92.01;100691.47;5035669;28;45348;-77
2023/06/21 04:58:55;;;;;;;;;8.25;8.25;;;;;20.76;92.01;100698.13;5036573;28;46236;-71
2023/06/21 05:01:21;;;;;;;;;8.00;8.00;;;;;20.81;91.97;100705.81;5052078;28;45367;-71
2023/06/21 05:03:47;;;;;;;;;6.75;6.75;;;;;20.79;91.84;100703.25;5036514;28;45460;-73
2023/06/21 05:06:13;;;;;;;;;7.00;7.00;;;;;20.79;91.82;100705.09;5035241;28;45573;-74
2023/06/21 05:08:39;;;;;;;;;7.75;7.75;;;;;20.78;92.02;100706.88;5046675;28;46576;-73
2023/06/21 05:11:06;;;;;;;;;7.25;7.25;;;;;20.68;91.90;100717.47;5063304;28;45516;-77
2023/06/21 05:13:32;;;;;;;;;9.75;9.75;;;;;20.60;92.14;100708.34;5074611;27;45387;-72
2023/06/21 05:15:57;;;;;;;;;9.00;7.50;;;;;20.65;92.45;100719.53;5073835;27;45312;-72
2023/06/21 05:18:23;;;;;;;;;8.00;8.00;;;;;20.62;92.81;100715.25;5054958;28;46673;-67
2023/06/21 05:20:48;;;;;;;;;9.50;9.50;;;;;20.69;92.83;100724.50;5049885;28;45429;-68
2023/06/21 05:23:13;;;;;;;;;6.75;6.75;;;;;20.76;92.72;100732.88;5055853;28;48495;-73
2023/06/21 05:25:39;;;;;;;;;9.75;9.75;;;;;20.83;92.24;100739.44;5056340;28;45292;-74
2023/06/21 05:28:04;;;;;;;;;7.25;7.25;;;;;20.87;92.03;100732.88;5055800;28;46077;-74
2023/06/21 05:30:30;;;;;;;;;7.50;7.50;;;;;20.94;91.75;100732.38;5057442;28;45630;-74
2023/06/21 05:32:55;;;;;;;;;9.75;7.75;;;;;20.97;91.94;100742.81;5074314;27;45434;-76
2023/06/21 05:35:20;;;;;;;;;8.50;8.50;;;;;21.01;91.85;100734.44;5073840;27;45420;-73
2023/06/21 05:37:46;;;;;;;;;10.00;8.50;;;;;21.04;91.57;100727.13;5063474;27;45478;-78
2023/06/21 05:40:11;;;;;;;;;8.50;8.50;;;;;21.11;91.70;100737.16;5055362;28;45461;-68
2023/06/21 05:42:37;;;;;;;;;8.50;8.50;;;;;21.18;90.74;100732.19;5063360;28;45528;-70
2023/06/21 05:45:04;;;;;;;;;10.25;10.25;;;;;21.25;90.64;100730.69;5080978;27;45282;-72
2023/06/21 05:47:29;;;;;;;;;9.00;9.00;;;;;21.31;90.05;100726.66;5077917;27;45467;-74
2023/06/21 05:49:55;;;;;;;;;9.25;9.25;;;;;21.29;89.65;100718.75;5057188;28;57375;-73
2023/06/21 05:52:20;;;;;;;;;10.75;10.75;;;;;21.33;89.95;100732.75;5055318;28;45455;-77
2023/06/21 05:54:45;;;;;;;;;9.75;9.75;;;;;21.37;89.38;100722.63;5057423;28;45644;-73
2023/06/21 05:57:11;;;;;;;;;8.75;8.75;;;;;21.39;89.15;100726.88;5055391;28;46419;-77
2023/06/21 05:59:37;;;;;;;;;11.25;11.25;;;;;21.39;89.04;100724.19;5053779;28;45750;-71
2023/06/21 06:02:03;;;;;;;;;8.50;8.50;;;;;21.42;88.96;100726.63;5055337;28;45299;-71
2023/06/21 06:04:28;;;;;;;;;11.25;11.25;;;;;21.40;88.71;100725.91;5071059;27;45267;-72
2023/06/21 06:06:53;;;;;;;;;9.75;9.75;;;;;21.33;88.63;100727.38;5055387;28;45211;-74
2023/06/21 06:09:19;;;;;;;;;11.75;11.75;;;;;21.36;89.03;100724.47;5053664;28;45435;-80
2023/06/21 06:11:44;;;;;;;;;11.00;11.00;;;;;21.40;88.60;100733.91;5055553;28;45365;-70
2023/06/21 06:14:12;;;;;;;;;10.50;10.50;;;;;21.39;88.52;100737.56;5064730;28;45516;-72
2023/06/21 06:16:38;;;;;;;;;12.50;12.50;;;;;21.36;88.64;100732.47;5075443;27;46472;-72
2023/06/21 06:19:04;;;;;;;;;13.25;13.25;;;;;21.31;88.34;100734.69;5074619;27;45436;-75
2023/06/21 06:21:29;;;;;;;;;8.50;8.50;;;;;21.34;88.64;100745.13;5059267;27;45490;-70
2023/06/21 06:23:54;;;;;;;;;14.25;14.25;;;;;21.40;89.27;100736.59;5070447;27;45332;-78
2023/06/21 06:26:25;;;;;;;;;13.00;13.00;;;;;21.37;88.55;100734.19;5068898;27;55850;-77
2023/06/21 06:28:51;;;;;;;;;11.25;11.25;;;;;21.43;88.55;100747.03;5064551;27;45380;-74
2023/06/21 06:31:24;;;;;;;;;15.50;15.00;;;;;21.40;87.60;100747.31;5053176;28;45470;-74
2023/06/21 06:33:49;;;;;;;;;12.00;12.00;;;;;21.42;87.55;100748.03;5052965;28;45569;-72
2023/06/21 06:36:15;;;;;;;;;12.75;12.75;;;;;21.39;87.57;100747.41;5051512;28;46886;-76
2023/06/21 06:38:40;;;;;;;;;12.00;12.00;;;;;21.44;87.57;100751.41;5052969;28;45857;-70
2023/06/21 06:41:06;;;;;;;;;11.25;11.25;;;;;21.42;87.48;100748.03;5051385;28;45499;-72
2023/06/21 06:43:32;;;;;;;;;11.25;11.25;;;;;21.45;87.31;100753.13;5053766;28;45476;-73
2023/06/21 06:46:00;;;;;;;;;8.00;8.00;;;;;21.45;86.71;100750.44;5054211;28;46612;-73
2023/06/21 06:48:26;;;;;;;;;12.25;12.25;;;;;21.47;86.70;100749.47;5054829;28;45210;-73
2023/06/21 06:50:51;;;;;;;;;10.00;10.00;;;;;21.51;86.43;100753.56;5054572;28;45157;-73
2023/06/21 06:53:17;;;;;;;;;12.50;12.50;;;;;21.50;86.08;100757.22;5054432;28;45519;-70
2023/06/21 06:55:42;;;;;;;;;13.00;13.00;;;;;21.52;85.89;100764.13;5054356;28;45415;-73
2023/06/21 06:58:08;;;;;;;;;13.25;13.00;;;;;21.44;86.03;100754.09;5054520;28;45299;-70
2023/06/21 07:00:33;;;;;;;;;15.50;15.50;;;;;21.55;85.94;100771.91;5054823;28;45231;-76
2023/06/21 07:02:58;;;;;;;;;12.25;12.25;;;;;21.60;85.43;100774.22;5055086;28;45188;-78
2023/06/21 07:05:24;;;;;;;;;11.50;11.50;;;;;21.62;84.07;100772.25;5054507;28;45636;-76
2023/06/21 07:07:50;;;;;;;;;10.75;10.75;;;;;21.70;83.45;100774.31;5054611;28;45232;-79
2023/06/21 07:10:16;;;;;;;;;11.00;11.00;;;;;21.77;82.41;100780.88;5054915;28;45299;-72
2023/06/21 07:12:43;;;;;;;;;10.25;10.25;;;;;21.87;81.24;100783.59;5054456;28;45517;-73
2023/06/21 07:15:08;;;;;;;;;8.00;8.00;;;;;21.97;79.27;100781.81;5054142;28;46317;-70
2023/06/21 07:17:34;;;;;;;;;9.50;9.50;;;;;22.06;78.75;100782.00;5054002;28;45374;-73
2023/06/21 07:19:59;;;;;;;;;7.00;7.00;;;;;22.09;77.17;100782.59;5054945;28;45350;-75
2023/06/21 07:22:24;;;;;;;;;9.75;9.75;;;;;22.10;77.36;100780.75;5054779;28;45567;-76
2023/06/21 07:24:50;;;;;;;;;10.00;10.00;;;;;22.18;77.27;100778.28;5054540;28;46869;-77
2023/06/21 07:27:15;;;;;;;;;7.50;7.50;;;;;22.28;76.43;100789.91;5054282;28;45378;-74
2023/06/21 07:29:41;;;;;;;;;8.25;8.25;;;;;22.37;76.67;100774.03;5060802;28;45109;-76
2023/06/21 07:32:06;;;;;;;;;9.75;9.75;;;;;22.44;76.23;100781.38;5076191;28;45280;-75
2023/06/21 07:34:32;;;;;;;;;6.75;6.75;;;;;22.56;75.07;100781.31;5057174;28;46246;-73
2023/06/21 07:36:57;;;;;;;;;9.25;9.25;;;;;22.57;74.88;100780.31;5054831;28;45345;-75
2023/06/21 07:39:22;;;;;;;;;8.00;8.00;;;;;22.65;74.18;100795.75;5054208;28;45335;-78
2023/06/21 07:41:48;;;;;;;;;9.00;9.00;;;;;22.69;73.62;100800.69;5054411;28;45204;-78
2023/06/21 07:44:13;;;;;;;;;9.75;9.75;;;;;;;;5053989;28;46435;-74
2023/06/21 07:46:39;;;;;;;;;9.50;9.50;;;;;22.80;73.38;100786.34;5054075;28;45322;-70
2023/06/21 07:49:04;;;;;;;;;12.50;12.50;;;;;22.86;73.41;100776.91;5054580;28;45319;-74
2023/06/21 07:51:29;;;;;;;;;11.00;10.50;;;;;22.96;73.14;100779.59;5052699;28;45302;-78
2023/06/21 07:53:55;;;;;;;;;8.00;8.00;;;;;22.99;72.88;100779.31;5054204;28;45427;-74
2023/06/21 07:56:20;;;;;;;;;9.00;9.00;;;;;23.00;73.06;100781.88;5054047;28;45377;-76
2023/06/21 07:58:46;;;;;;;;;10.50;10.50;;;;;22.99;72.53;100780.19;5058197;28;45428;-73
2023/06/21 08:01:12;;;;;;;;;10.25;10.25;;;;;23.05;72.74;100786.81;5053436;28;45444;-72
2023/06/21 08:03:39;;;;;;;;;8.50;8.50;;;;;23.03;72.63;100778.06;5056110;28;46225;-71
2023/06/21 08:06:05;;;;;;;;;10.00;10.00;;;;;23.02;72.68;100787.09;5057696;28;45221;-74
2023/06/21 08:08:30;;;;;;;;;8.25;8.25;;;;;23.09;72.19;100790.06;5056463;28;45362;-78
2023/06/21 08:10:56;;;;;;;;;9.00;9.00;;;;;23.11;71.75;100791.63;5073029;28;45513;-73
2023/06/21 08:13:22;;;;;;;;;7.00;7.00;;;;;23.08;71.43;100788.38;5057182;28;47157;-71
2023/06/21 08:15:49;;;;;;;;;8.50;8.50;;;;;23.13;71.26;100800.38;5057143;28;45253;-71
2023/06/21 08:18:14;;;;;;;;;8.50;8.50;;;;;23.13;70.64;100803.06;5057244;28;45218;-71
2023/06/21 08:20:41;;;;;;;;;6.50;6.50;;;;;23.13;71.06;100795.00;5057112;28;45569;-76
2023/06/21 08:23:09;;;;;;;;;10.00;10.00;;;;;23.28;70.61;100805.38;5056937;28;45453;-75
2023/06/21 08:25:38;;;;;;;;;8.50;8.50;;;;;23.37;69.89;100803.69;5057376;28;45303;-75
2023/06/21 08:28:04;;;;;;;;;9.00;9.00;;;;;23.43;69.55;100801.31;5057170;28;45427;-78
2023/06/21 08:30:29;;;;;;;;;11.75;11.75;;;;;23.55;69.00;100807.38;5056851;28;45485;-76
2023/06/21 08:32:55;;;;;;;;;7.50;7.50;;;;;23.61;67.73;100806.81;5056377;28;46345;-72
2023/06/21 08:35:20;;;;;;;;;9.75;9.75;;;;;23.64;67.64;100803.00;5055582;28;45768;-75
2023/06/21 08:37:59;;;;;;;;;9.00;9.00;;;;;23.73;67.76;100804.84;5057046;28;45326;-75
2023/06/21 08:40:27;;;;;;;;;8.75;8.75;;;;;23.85;67.00;100802.81;5058740;28;45286;-76
2023/06/21 08:42:53;;;;;;;;;17.00;17.00;;;;;24.03;67.09;100800.28;5057524;28;45286;-79
2023/06/21 08:45:20;;;;;;;;;10.50;10.50;;;;;24.25;66.18;100810.84;5056541;28;45201;-77
2023/06/21 08:47:47;;;;;;;;;8.00;8.00;;;;;24.40;64.18;100811.25;5056741;28;45460;-76
2023/06/21 08:50:16;;;;;;;;;7.25;7.25;;;;;24.54;64.51;100802.69;5056781;28;45534;-72
2023/06/21 08:52:43;;;;;;;;;9.00;9.00;;;;;24.69;64.06;100816.50;5056125;28;45348;-72
2023/06/21 08:55:10;;;;;;;;;8.50;8.50;;;;;24.85;63.65;100813.19;5056583;28;45590;-71
2023/06/21 08:57:43;;;;;;;;;6.00;6.00;;;;;24.98;62.22;100814.69;5056774;28;45463;-73
2023/06/21 09:00:10;;;;;;;;;8.50;8.50;;;;;25.06;61.81;100812.94;5056940;28;45375;-70
2023/06/21 09:03:09;;;;;;;;;7.00;7.00;;;;;25.13;61.39;100821.25;5055966;28;45329;-72
2023/06/21 09:05:52;;;;;;;;;8.25;8.25;;;;;25.19;60.72;100817.94;5057639;28;45334;-75
2023/06/21 09:08:19;;;;;;;;;9.00;9.00;;;;;25.31;60.37;100821.28;5057991;28;45406;-78
2023/06/21 09:10:48;;;;;;;;;10.00;10.00;;;;;25.42;60.48;100822.88;5056306;28;45453;-77
2023/06/21 09:13:14;;;;;;;;;8.00;8.00;;;;;25.54;59.82;100818.16;5056245;28;46192;-75
2023/06/21 09:15:45;;;;;;;;;9.00;9.00;;;;;25.70;59.90;100820.16;5057685;28;45281;-74
2023/06/21 09:18:11;;;;;;;;;6.75;6.75;;;;;25.79;58.76;100823.75;5058968;28;45305;-74
2023/06/21 09:20:37;;;;;;;;;8.75;8.75;;;;;25.78;58.92;100817.53;5058322;28;45574;-79
2023/06/21 09:23:03;;;;;;;;;9.00;9.00;;;;;25.81;58.84;100822.59;5058279;28;45481;-76
2023/06/21 09:25:28;;;;;;;;;8.75;8.75;;;;;25.92;58.27;100826.88;5058142;28;45316;-70
2023/06/21 09:27:55;;;;;;;;;10.25;10.25;;;;;26.05;57.34;100822.94;5056372;28;45477;-72
2023/06/21 09:30:21;;;;;;;;;7.50;7.50;;;;;26.15;57.51;100814.78;5056555;28;45499;-72
2023/06/21 09:32:47;;;;;;;;;9.25;9.25;;;;;26.19;57.20;100818.84;5054516;28;48005;-74
2023/06/21 09:35:13;;;;;;;;;8.75;8.75;;;;;26.20;57.03;100820.53;5056381;28;45310;-74
2023/06/21 09:37:39;;;;;;;;;7.25;7.25;;;;;26.16;56.30;100813.78;5055227;28;45408;-73
2023/06/21 09:40:05;;;;;;;;;10.00;9.75;;;;;26.26;56.40;100825.28;5056202;28;45578;-77
2023/06/21 09:42:34;;;;;;;;;11.75;11.00;;;;;26.26;56.25;100825.28;5055615;28;46227;-76
2023/06/21 09:45:00;;;;;;;;;8.75;8.75;;;;;26.25;55.95;100819.06;5055685;28;45461;-75
2023/06/21 09:47:30;;;;;;;;;10.00;10.00;;;;;26.35;56.18;100828.91;5055881;28;45469;-79
2023/06/21 09:49:56;;;;;;;;;10.75;10.75;;;;;26.44;55.81;100827.06;5056223;28;45293;-77
2023/06/21 09:52:22;;;;;;;;;13.00;13.00;;;;;26.51;55.27;100830.84;5055632;28;45481;-78
2023/06/21 09:54:48;;;;;;;;;27.25;27.00;;;;;26.56;55.00;100831.22;5054099;28;45297;-74
2023/06/21 09:57:13;;;;;;;;;16.50;16.50;;;;;26.61;54.66;100836.13;5055782;28;45243;-72
2023/06/21 09:59:41;;;;;;;;;11.25;11.25;;;;;26.67;54.95;100830.06;5056466;28;45453;-74
2023/06/21 10:02:07;;;;;;;;;12.00;12.00;;;;;26.72;54.51;100830.44;5055533;28;45517;-76
2023/06/21 10:04:41;;;;;;;;;11.00;11.00;;;;;26.79;53.84;100826.06;5055971;28;45416;-76
2023/06/21 10:07:07;;;;;;;;;11.00;11.00;;;;;26.82;54.12;100835.72;5055649;28;45279;-75
2023/06/21 10:09:37;;;;;;;;;16.50;16.50;;;;;26.86;54.26;100829.00;5054387;28;45631;-76
2023/06/21 10:12:08;;;;;;;;;10.00;10.00;;;;;26.78;53.78;100826.25;5055590;28;45499;-73
2023/06/21 10:14:33;;;;;;;;;11.00;11.00;;;;;26.71;53.67;100825.22;5056750;28;45410;-72
2023/06/21 10:17:00;;;;;;;;;11.75;11.75;;;;;26.57;53.11;100830.22;5055570;28;45442;-71
2023/06/21 10:19:29;;;;;;;;;8.75;8.75;;;;;26.53;53.34;100831.53;5055407;28;45384;-74
2023/06/21 10:22:04;;;;;;;;;10.25;10.25;;;;;26.49;53.48;100817.50;5055078;28;45635;-76
2023/06/21 10:24:35;;;;;;;;;11.50;11.50;;;;;26.55;53.39;100818.75;5052723;28;45353;-71
2023/06/21 10:27:04;;;;;;;;;11.75;11.75;;;;;26.62;53.11;100825.19;5054791;28;45221;-72
2023/06/21 10:29:31;;;;;;;;;18.25;18.25;;;;;26.68;52.76;100816.44;5055405;28;45230;-77
2023/06/21 10:31:59;;;;;;;;;14.75;14.75;;;;;26.72;52.73;100813.41;5056217;28;46123;-73
2023/06/21 10:34:27;;;;;;;;;14.00;14.00;;;;;26.89;52.60;100819.72;5055247;28;45330;-75
2023/06/21 10:37:04;;;;;;;;;14.00;14.00;;;;;27.02;51.54;100819.28;5055556;28;45378;-74
2023/06/21 10:39:33;;;;;;;;;18.25;17.75;;;;;27.15;50.77;100822.34;5055839;28;45181;-71
2023/06/21 10:42:00;;;;;;;;;9.75;9.75;;;;;27.30;50.99;100821.69;5053281;28;47096;-69
2023/06/21 10:44:28;;;;;;;;;12.50;12.50;;;;;27.47;50.61;100815.28;5053602;28;45408;-76
2023/06/21 10:46:57;;;;;;;;;12.00;12.00;;;;;27.60;50.48;100822.13;5054353;28;45300;-78
2023/06/21 10:49:26;;;;;;;;;11.00;10.25;;;;;27.57;50.16;100809.78;5056180;28;45497;-74
2023/06/21 10:51:52;;;;;;;;;10.25;10.25;;;;;27.49;50.30;100817.84;5055952;28;46283;-77
2023/06/21 10:54:19;;;;;;;;;8.50;8.50;;;;;27.47;49.73;100822.56;5056131;28;45391;-75
2023/06/21 10:56:45;;;;;;;;;8.75;8.75;;;;;27.27;49.95;100812.91;5056979;28;45334;-77
2023/06/21 10:59:11;;;;;;;;;7.25;7.25;;;;;27.22;49.83;100817.97;5070320;28;45405;-70
2023/06/21 11:01:36;;;;;;;;;10.25;10.25;;;;;27.25;49.92;100823.03;5053835;28;46109;-78
2023/06/21 11:04:03;;;;;;;;;10.25;10.25;;;;;27.31;48.86;100820.69;5055247;28;45409;-77
2023/06/21 11:06:33;;;;;;;;;15.75;15.75;;;;;27.37;49.41;100815.47;5056204;28;45404;-72
2023/06/21 11:09:08;;;;;;;;;11.75;11.75;;;;;27.52;48.77;100823.78;5056113;28;45574;-76
2023/06/21 11:11:36;;;;;;;;;11.00;11.00;;;;;27.68;48.48;100811.31;5056349;28;47295;-76
2023/06/21 11:14:03;;;;;;;;;16.75;16.75;;;;;27.73;48.59;100819.75;5056283;28;45404;-75
2023/06/21 11:16:39;;;;;;;;;16.50;16.50;;;;;27.77;48.26;100818.41;5053897;28;45315;-75
2023/06/21 11:19:10;;;;;;;;;22.75;22.75;;;;;27.76;48.56;100799.63;5054856;28;45240;-74
2023/06/21 11:21:42;;;;;;;;;13.25;12.25;;;;;27.89;47.56;100823.47;5056335;28;46024;-75